Toulon, Nevada
Current Conditions -  °F | °C
As of 4:53 AM on Sunday 21 Dec 2014 (Local Time) from KLOL Reporting Station
Overcast Overcast  
Wind Chill:   Ceiling: 5000
Heat Index:   Visibility: 10mi
Dew Point:   Wind: 5mph
Humidity: 93%   Direction: 100°E
Pressure: 30.11"   Gusts: NA
Location:  40.3545°N, 118.628°W
Report Text: KLOL 211253Z AUTO 10004KT 10SM OVC050 04/03 A3011 RMK AO2 SLP202 T00440033
Loading
Personal Weather Stations






























Interactive Weather Map New forecast layout! Learn more

10-Day Weather Forecast

Advertisements
Track Severe Weather on mobile